sensor_id;sensor_type;location;lat;lon;timestamp;temperature;humidity
29663;DHT22;16578;53.266;7.920;2022-07-22T00:00:50;20.90;73.40
29663;DHT22;16578;53.266;7.920;2022-07-22T00:03:15;20.90;73.50
29663;DHT22;16578;53.266;7.920;2022-07-22T00:05:41;20.90;73.60
29663;DHT22;16578;53.266;7.920;2022-07-22T00:08:07;20.90;73.80
29663;DHT22;16578;53.266;7.920;2022-07-22T00:10:32;20.90;73.80
29663;DHT22;16578;53.266;7.920;2022-07-22T00:12:58;20.90;73.90
29663;DHT22;16578;53.266;7.920;2022-07-22T00:15:23;20.90;73.80
29663;DHT22;16578;53.266;7.920;2022-07-22T00:17:49;20.90;73.80
29663;DHT22;16578;53.266;7.920;2022-07-22T00:20:14;20.90;73.80
29663;DHT22;16578;53.266;7.920;2022-07-22T00:22:40;20.90;73.80
29663;DHT22;16578;53.266;7.920;2022-07-22T00:25:06;20.90;73.80
29663;DHT22;16578;53.266;7.920;2022-07-22T00:27:32;20.90;73.60
29663;DHT22;16578;53.266;7.920;2022-07-22T00:29:58;20.90;73.60
29663;DHT22;16578;53.266;7.920;2022-07-22T00:32:23;20.90;73.50
29663;DHT22;16578;53.266;7.920;2022-07-22T00:34:49;20.90;73.40
29663;DHT22;16578;53.266;7.920;2022-07-22T00:37:15;20.90;73.40
29663;DHT22;16578;53.266;7.920;2022-07-22T00:39:40;20.80;73.40
29663;DHT22;16578;53.266;7.920;2022-07-22T00:42:06;20.90;73.40
29663;DHT22;16578;53.266;7.920;2022-07-22T00:44:31;20.80;73.40
29663;DHT22;16578;53.266;7.920;2022-07-22T00:46:57;20.80;73.40
29663;DHT22;16578;53.266;7.920;2022-07-22T00:49:22;20.80;73.30
29663;DHT22;16578;53.266;7.920;2022-07-22T00:51:48;20.80;73.20
29663;DHT22;16578;53.266;7.920;2022-07-22T00:54:14;20.70;73.10
29663;DHT22;16578;53.266;7.920;2022-07-22T00:56:40;20.70;73.30
29663;DHT22;16578;53.266;7.920;2022-07-22T00:59:08;20.70;73.40
29663;DHT22;16578;53.266;7.920;2022-07-22T01:01:35;20.70;73.60
29663;DHT22;16578;53.266;7.920;2022-07-22T01:04:01;20.70;73.70
29663;DHT22;16578;53.266;7.920;2022-07-22T01:06:28;20.70;73.60
29663;DHT22;16578;53.266;7.920;2022-07-22T01:08:55;20.70;73.70
29663;DHT22;16578;53.266;7.920;2022-07-22T01:11:21;20.70;73.60
29663;DHT22;16578;53.266;7.920;2022-07-22T01:13:47;20.70;73.70
29663;DHT22;16578;53.266;7.920;2022-07-22T01:16:14;20.80;73.80
29663;DHT22;16578;53.266;7.920;2022-07-22T01:18:41;20.80;73.90
29663;DHT22;16578;53.266;7.920;2022-07-22T01:21:07;20.80;73.90
29663;DHT22;16578;53.266;7.920;2022-07-22T01:23:34;20.80;74.00
29663;DHT22;16578;53.266;7.920;2022-07-22T01:26:00;20.80;73.90
29663;DHT22;16578;53.266;7.920;2022-07-22T01:28:26;20.80;73.90
29663;DHT22;16578;53.266;7.920;2022-07-22T01:30:52;20.80;73.80
29663;DHT22;16578;53.266;7.920;2022-07-22T01:33:18;20.90;73.80
29663;DHT22;16578;53.266;7.920;2022-07-22T01:35:44;20.90;73.70
29663;DHT22;16578;53.266;7.920;2022-07-22T01:38:11;20.90;73.60
29663;DHT22;16578;53.266;7.920;2022-07-22T01:40:36;20.90;73.60
29663;DHT22;16578;53.266;7.920;2022-07-22T01:43:02;20.90;73.60
29663;DHT22;16578;53.266;7.920;2022-07-22T01:45:28;20.90;73.70
29663;DHT22;16578;53.266;7.920;2022-07-22T01:47:53;20.90;73.70
29663;DHT22;16578;53.266;7.920;2022-07-22T01:50:19;20.90;73.60
29663;DHT22;16578;53.266;7.920;2022-07-22T01:52:45;20.90;73.50
29663;DHT22;16578;53.266;7.920;2022-07-22T01:55:10;20.90;73.60
29663;DHT22;16578;53.266;7.920;2022-07-22T01:57:37;20.90;73.50
29663;DHT22;16578;53.266;7.920;2022-07-22T02:00:07;20.90;73.30
29663;DHT22;16578;53.266;7.920;2022-07-22T02:02:34;20.90;73.20
29663;DHT22;16578;53.266;7.920;2022-07-22T02:05:00;20.90;73.20
29663;DHT22;16578;53.266;7.920;2022-07-22T02:07:26;20.90;73.20
29663;DHT22;16578;53.266;7.920;2022-07-22T02:09:52;20.90;73.20
29663;DHT22;16578;53.266;7.920;2022-07-22T02:12:18;20.90;73.20
29663;DHT22;16578;53.266;7.920;2022-07-22T02:14:43;20.90;73.20
29663;DHT22;16578;53.266;7.920;2022-07-22T02:17:09;20.80;74.00
29663;DHT22;16578;53.266;7.920;2022-07-22T02:19:35;20.80;73.10
29663;DHT22;16578;53.266;7.920;2022-07-22T02:22:00;20.80;73.10
29663;DHT22;16578;53.266;7.920;2022-07-22T02:24:26;20.90;73.20
29663;DHT22;16578;53.266;7.920;2022-07-22T02:26:51;20.80;73.10
29663;DHT22;16578;53.266;7.920;2022-07-22T02:29:17;20.80;73.00
29663;DHT22;16578;53.266;7.920;2022-07-22T02:31:42;20.80;73.10
29663;DHT22;16578;53.266;7.920;2022-07-22T02:34:08;20.80;73.00
29663;DHT22;16578;53.266;7.920;2022-07-22T02:36:34;20.80;72.90
29663;DHT22;16578;53.266;7.920;2022-07-22T02:38:59;20.80;73.10
29663;DHT22;16578;53.266;7.920;2022-07-22T02:41:25;20.80;73.30
29663;DHT22;16578;53.266;7.920;2022-07-22T02:43:51;20.80;73.10
29663;DHT22;16578;53.266;7.920;2022-07-22T02:46:20;20.80;73.00
29663;DHT22;16578;53.266;7.920;2022-07-22T02:48:46;20.80;72.90
29663;DHT22;16578;53.266;7.920;2022-07-22T02:51:11;20.80;73.00
29663;DHT22;16578;53.266;7.920;2022-07-22T02:53:37;20.80;72.90
29663;DHT22;16578;53.266;7.920;2022-07-22T02:56:03;20.80;72.90
29663;DHT22;16578;53.266;7.920;2022-07-22T02:58:28;20.80;72.80
29663;DHT22;16578;53.266;7.920;2022-07-22T03:00:54;20.80;72.90
29663;DHT22;16578;53.266;7.920;2022-07-22T03:03:19;20.80;73.00
29663;DHT22;16578;53.266;7.920;2022-07-22T03:05:45;20.70;73.00
29663;DHT22;16578;53.266;7.920;2022-07-22T03:08:10;20.80;73.10
29663;DHT22;16578;53.266;7.920;2022-07-22T03:10:37;20.80;73.20
29663;DHT22;16578;53.266;7.920;2022-07-22T03:13:02;20.70;73.20
29663;DHT22;16578;53.266;7.920;2022-07-22T03:15:28;20.80;73.20
29663;DHT22;16578;53.266;7.920;2022-07-22T03:17:53;20.80;73.20
29663;DHT22;16578;53.266;7.920;2022-07-22T03:20:19;20.80;73.20
29663;DHT22;16578;53.266;7.920;2022-07-22T03:22:45;20.80;73.30
29663;DHT22;16578;53.266;7.920;2022-07-22T03:25:11;20.80;73.30
29663;DHT22;16578;53.266;7.920;2022-07-22T03:27:37;20.80;73.40
29663;DHT22;16578;53.266;7.920;2022-07-22T03:30:06;20.80;73.20
29663;DHT22;16578;53.266;7.920;2022-07-22T03:32:32;20.80;73.10
29663;DHT22;16578;53.266;7.920;2022-07-22T03:34:57;20.80;73.20
29663;DHT22;16578;53.266;7.920;2022-07-22T03:37:23;20.80;73.30
29663;DHT22;16578;53.266;7.920;2022-07-22T03:39:48;20.80;73.30
29663;DHT22;16578;53.266;7.920;2022-07-22T03:42:14;20.80;73.10
29663;DHT22;16578;53.266;7.920;2022-07-22T03:44:39;20.80;73.20
29663;DHT22;16578;53.266;7.920;2022-07-22T03:47:05;20.80;73.20
29663;DHT22;16578;53.266;7.920;2022-07-22T03:49:31;20.80;73.20
29663;DHT22;16578;53.266;7.920;2022-07-22T03:51:57;20.80;73.10
29663;DHT22;16578;53.266;7.920;2022-07-22T03:54:23;20.80;73.10
29663;DHT22;16578;53.266;7.920;2022-07-22T03:56:48;20.80;73.30
29663;DHT22;16578;53.266;7.920;2022-07-22T03:59:15;20.80;73.30
29663;DHT22;16578;53.266;7.920;2022-07-22T04:01:41;20.80;73.40
29663;DHT22;16578;53.266;7.920;2022-07-22T04:04:06;20.80;73.40
29663;DHT22;16578;53.266;7.920;2022-07-22T04:06:32;20.80;73.40
29663;DHT22;16578;53.266;7.920;2022-07-22T04:08:58;20.80;73.30
29663;DHT22;16578;53.266;7.920;2022-07-22T04:11:23;20.80;73.30
29663;DHT22;16578;53.266;7.920;2022-07-22T04:13:49;20.80;73.30
29663;DHT22;16578;53.266;7.920;2022-07-22T04:16:15;20.80;73.30
29663;DHT22;16578;53.266;7.920;2022-07-22T04:18:40;20.80;73.20
29663;DHT22;16578;53.266;7.920;2022-07-22T04:21:06;20.80;73.30
29663;DHT22;16578;53.266;7.920;2022-07-22T04:23:31;20.80;73.30
29663;DHT22;16578;53.266;7.920;2022-07-22T04:25:57;20.80;73.10
29663;DHT22;16578;53.266;7.920;2022-07-22T04:28:23;20.80;72.90
29663;DHT22;16578;53.266;7.920;2022-07-22T04:30:48;20.80;72.90
29663;DHT22;16578;53.266;7.920;2022-07-22T04:33:14;20.80;73.00
29663;DHT22;16578;53.266;7.920;2022-07-22T04:35:39;20.80;73.10
29663;DHT22;16578;53.266;7.920;2022-07-22T04:38:05;20.80;73.20
29663;DHT22;16578;53.266;7.920;2022-07-22T04:40:30;20.80;73.30
29663;DHT22;16578;53.266;7.920;2022-07-22T04:42:56;20.80;73.40
29663;DHT22;16578;53.266;7.920;2022-07-22T04:45:21;20.80;73.30
29663;DHT22;16578;53.266;7.920;2022-07-22T04:47:47;20.80;73.10
29663;DHT22;16578;53.266;7.920;2022-07-22T04:50:12;20.80;72.90
29663;DHT22;16578;53.266;7.920;2022-07-22T04:52:38;20.80;73.80
29663;DHT22;16578;53.266;7.920;2022-07-22T04:55:04;20.80;72.90
29663;DHT22;16578;53.266;7.920;2022-07-22T04:57:30;20.90;72.90
29663;DHT22;16578;53.266;7.920;2022-07-22T04:59:55;20.80;72.90
29663;DHT22;16578;53.266;7.920;2022-07-22T05:02:21;20.80;72.90
29663;DHT22;16578;53.266;7.920;2022-07-22T05:04:46;20.80;72.70
29663;DHT22;16578;53.266;7.920;2022-07-22T05:07:12;20.80;72.70
29663;DHT22;16578;53.266;7.920;2022-07-22T05:09:37;20.80;72.70
29663;DHT22;16578;53.266;7.920;2022-07-22T05:12:03;20.80;72.60
29663;DHT22;16578;53.266;7.920;2022-07-22T05:14:29;20.80;72.50
29663;DHT22;16578;53.266;7.920;2022-07-22T05:16:55;20.80;72.30
29663;DHT22;16578;53.266;7.920;2022-07-22T05:19:21;20.80;72.40
29663;DHT22;16578;53.266;7.920;2022-07-22T05:21:46;20.80;72.50
29663;DHT22;16578;53.266;7.920;2022-07-22T05:24:12;20.80;72.50
29663;DHT22;16578;53.266;7.920;2022-07-22T05:26:38;20.80;72.40
29663;DHT22;16578;53.266;7.920;2022-07-22T05:29:03;20.80;72.30
29663;DHT22;16578;53.266;7.920;2022-07-22T05:31:29;20.80;72.10
29663;DHT22;16578;53.266;7.920;2022-07-22T05:33:55;20.80;71.90
29663;DHT22;16578;53.266;7.920;2022-07-22T05:36:21;20.80;71.70
29663;DHT22;16578;53.266;7.920;2022-07-22T05:38:46;20.80;71.70
29663;DHT22;16578;53.266;7.920;2022-07-22T05:41:12;20.80;71.90
29663;DHT22;16578;53.266;7.920;2022-07-22T05:43:38;20.80;72.10
29663;DHT22;16578;53.266;7.920;2022-07-22T05:46:04;20.80;72.10
29663;DHT22;16578;53.266;7.920;2022-07-22T05:48:30;20.80;72.30
29663;DHT22;16578;53.266;7.920;2022-07-22T05:50:56;20.80;71.90
29663;DHT22;16578;53.266;7.920;2022-07-22T05:53:21;20.80;71.70
29663;DHT22;16578;53.266;7.920;2022-07-22T05:55:47;20.80;71.90
29663;DHT22;16578;53.266;7.920;2022-07-22T05:58:12;20.80;72.50
29663;DHT22;16578;53.266;7.920;2022-07-22T06:00:38;20.80;72.00
29663;DHT22;16578;53.266;7.920;2022-07-22T06:03:05;20.80;71.80
29663;DHT22;16578;53.266;7.920;2022-07-22T06:05:31;20.80;71.50
29663;DHT22;16578;53.266;7.920;2022-07-22T06:07:57;20.80;71.30
29663;DHT22;16578;53.266;7.920;2022-07-22T06:10:22;20.80;70.80
29663;DHT22;16578;53.266;7.920;2022-07-22T06:12:48;20.80;70.30
29663;DHT22;16578;53.266;7.920;2022-07-22T06:15:13;20.80;70.20
29663;DHT22;16578;53.266;7.920;2022-07-22T06:17:39;20.80;70.30
29663;DHT22;16578;53.266;7.920;2022-07-22T06:20:05;20.80;70.50
29663;DHT22;16578;53.266;7.920;2022-07-22T06:22:31;20.80;70.60
29663;DHT22;16578;53.266;7.920;2022-07-22T06:24:57;20.80;70.90
29663;DHT22;16578;53.266;7.920;2022-07-22T06:27:22;20.80;71.00
29663;DHT22;16578;53.266;7.920;2022-07-22T06:29:48;20.80;70.90
29663;DHT22;16578;53.266;7.920;2022-07-22T06:32:14;20.80;71.00
29663;DHT22;16578;53.266;7.920;2022-07-22T06:34:39;20.80;70.90
29663;DHT22;16578;53.266;7.920;2022-07-22T06:37:05;20.80;70.80
29663;DHT22;16578;53.266;7.920;2022-07-22T06:39:30;20.80;70.80
29663;DHT22;16578;53.266;7.920;2022-07-22T06:41:56;20.80;70.50
29663;DHT22;16578;53.266;7.920;2022-07-22T06:44:21;20.80;70.30
29663;DHT22;16578;53.266;7.920;2022-07-22T06:46:47;20.80;70.40
29663;DHT22;16578;53.266;7.920;2022-07-22T06:49:13;20.80;70.60
29663;DHT22;16578;53.266;7.920;2022-07-22T06:51:38;20.80;70.70
29663;DHT22;16578;53.266;7.920;2022-07-22T06:54:04;20.80;70.60
29663;DHT22;16578;53.266;7.920;2022-07-22T06:56:29;20.90;70.80
29663;DHT22;16578;53.266;7.920;2022-07-22T06:58:55;20.80;70.90
29663;DHT22;16578;53.266;7.920;2022-07-22T07:01:21;20.90;70.80
29663;DHT22;16578;53.266;7.920;2022-07-22T07:03:46;20.90;70.40
29663;DHT22;16578;53.266;7.920;2022-07-22T07:06:12;20.90;70.40
29663;DHT22;16578;53.266;7.920;2022-07-22T07:08:39;20.90;70.20
29663;DHT22;16578;53.266;7.920;2022-07-22T07:11:05;20.90;70.00
29663;DHT22;16578;53.266;7.920;2022-07-22T07:13:31;20.90;69.90
29663;DHT22;16578;53.266;7.920;2022-07-22T07:15:57;20.90;69.60
29663;DHT22;16578;53.266;7.920;2022-07-22T07:18:23;20.90;69.80
29663;DHT22;16578;53.266;7.920;2022-07-22T07:20:49;21.00;70.00
29663;DHT22;16578;53.266;7.920;2022-07-22T07:23:14;21.00;69.70
29663;DHT22;16578;53.266;7.920;2022-07-22T07:25:40;21.00;69.30
29663;DHT22;16578;53.266;7.920;2022-07-22T07:28:06;21.00;69.20
29663;DHT22;16578;53.266;7.920;2022-07-22T07:30:32;21.00;69.10
29663;DHT22;16578;53.266;7.920;2022-07-22T07:32:57;21.00;68.70
29663;DHT22;16578;53.266;7.920;2022-07-22T07:35:26;21.00;68.70
29663;DHT22;16578;53.266;7.920;2022-07-22T07:37:52;21.00;68.50
29663;DHT22;16578;53.266;7.920;2022-07-22T07:40:17;21.00;68.30
29663;DHT22;16578;53.266;7.920;2022-07-22T07:42:43;21.00;68.20
29663;DHT22;16578;53.266;7.920;2022-07-22T07:45:09;21.00;68.40
29663;DHT22;16578;53.266;7.920;2022-07-22T07:47:34;20.90;68.00
29663;DHT22;16578;53.266;7.920;2022-07-22T07:50:00;21.00;68.00
29663;DHT22;16578;53.266;7.920;2022-07-22T07:52:28;21.00;68.00
29663;DHT22;16578;53.266;7.920;2022-07-22T07:54:53;21.00;67.80
29663;DHT22;16578;53.266;7.920;2022-07-22T07:57:21;20.90;67.60
29663;DHT22;16578;53.266;7.920;2022-07-22T07:59:47;21.00;67.10
29663;DHT22;16578;53.266;7.920;2022-07-22T08:02:12;20.90;67.00
29663;DHT22;16578;53.266;7.920;2022-07-22T08:04:38;20.90;67.00
29663;DHT22;16578;53.266;7.920;2022-07-22T08:07:05;20.90;67.70
29663;DHT22;16578;53.266;7.920;2022-07-22T08:09:31;21.00;68.10
29663;DHT22;16578;53.266;7.920;2022-07-22T08:11:56;21.00;67.50
29663;DHT22;16578;53.266;7.920;2022-07-22T08:14:22;20.90;67.30
29663;DHT22;16578;53.266;7.920;2022-07-22T08:16:49;21.00;67.50
29663;DHT22;16578;53.266;7.920;2022-07-22T08:19:15;21.00;67.40
29663;DHT22;16578;53.266;7.920;2022-07-22T08:21:40;21.00;67.30
29663;DHT22;16578;53.266;7.920;2022-07-22T08:24:08;21.00;67.50
29663;DHT22;16578;53.266;7.920;2022-07-22T08:26:34;21.00;66.90
29663;DHT22;16578;53.266;7.920;2022-07-22T08:29:00;21.00;66.60
29663;DHT22;16578;53.266;7.920;2022-07-22T08:31:27;21.00;66.50
29663;DHT22;16578;53.266;7.920;2022-07-22T08:33:52;21.00;66.50
29663;DHT22;16578;53.266;7.920;2022-07-22T08:36:18;21.10;66.20
29663;DHT22;16578;53.266;7.920;2022-07-22T08:38:44;21.00;66.20
29663;DHT22;16578;53.266;7.920;2022-07-22T08:41:10;21.10;66.40
29663;DHT22;16578;53.266;7.920;2022-07-22T08:43:38;21.10;66.40
29663;DHT22;16578;53.266;7.920;2022-07-22T08:46:07;21.10;66.10
29663;DHT22;16578;53.266;7.920;2022-07-22T08:48:32;21.10;65.90
29663;DHT22;16578;53.266;7.920;2022-07-22T08:50:58;21.10;65.80
29663;DHT22;16578;53.266;7.920;2022-07-22T08:53:24;21.10;65.90
29663;DHT22;16578;53.266;7.920;2022-07-22T08:55:49;21.10;66.00
29663;DHT22;16578;53.266;7.920;2022-07-22T08:58:15;21.10;66.20
29663;DHT22;16578;53.266;7.920;2022-07-22T09:00:42;21.10;65.90
29663;DHT22;16578;53.266;7.920;2022-07-22T09:03:23;21.10;65.70
29663;DHT22;16578;53.266;7.920;2022-07-22T09:05:51;21.10;65.50
29663;DHT22;16578;53.266;7.920;2022-07-22T09:08:17;21.10;65.90
29663;DHT22;16578;53.266;7.920;2022-07-22T09:10:43;21.10;65.80
29663;DHT22;16578;53.266;7.920;2022-07-22T09:13:10;21.10;65.60
29663;DHT22;16578;53.266;7.920;2022-07-22T09:15:38;21.10;65.60
29663;DHT22;16578;53.266;7.920;2022-07-22T09:18:07;21.10;65.20
29663;DHT22;16578;53.266;7.920;2022-07-22T09:20:34;21.10;65.10
29663;DHT22;16578;53.266;7.920;2022-07-22T09:23:01;21.10;65.30
29663;DHT22;16578;53.266;7.920;2022-07-22T09:25:37;21.10;66.00
29663;DHT22;16578;53.266;7.920;2022-07-22T09:30:34;21.20;65.70
29663;DHT22;16578;53.266;7.920;2022-07-22T09:33:00;21.20;65.80
29663;DHT22;16578;53.266;7.920;2022-07-22T09:35:26;21.10;66.20
29663;DHT22;16578;53.266;7.920;2022-07-22T09:37:55;21.20;66.00
29663;DHT22;16578;53.266;7.920;2022-07-22T09:40:24;21.20;65.90
29663;DHT22;16578;53.266;7.920;2022-07-22T09:42:59;21.20;65.10
29663;DHT22;16578;53.266;7.920;2022-07-22T09:45:29;21.30;66.00
29663;DHT22;16578;53.266;7.920;2022-07-22T09:47:57;21.20;64.70
29663;DHT22;16578;53.266;7.920;2022-07-22T09:50:24;21.20;64.70
29663;DHT22;16578;53.266;7.920;2022-07-22T09:52:53;21.20;65.40
29663;DHT22;16578;53.266;7.920;2022-07-22T09:55:21;21.30;65.20
29663;DHT22;16578;53.266;7.920;2022-07-22T09:57:48;21.30;65.10
29663;DHT22;16578;53.266;7.920;2022-07-22T10:00:18;21.30;65.60
29663;DHT22;16578;53.266;7.920;2022-07-22T10:02:58;21.30;65.20
29663;DHT22;16578;53.266;7.920;2022-07-22T10:05:26;21.30;64.50
29663;DHT22;16578;53.266;7.920;2022-07-22T10:07:53;21.30;64.90
29663;DHT22;16578;53.266;7.920;2022-07-22T10:10:21;21.30;65.20
29663;DHT22;16578;53.266;7.920;2022-07-22T10:12:52;21.30;64.60
29663;DHT22;16578;53.266;7.920;2022-07-22T10:15:19;21.40;64.40
29663;DHT22;16578;53.266;7.920;2022-07-22T10:17:47;21.40;64.40
29663;DHT22;16578;53.266;7.920;2022-07-22T10:20:16;21.40;64.00
29663;DHT22;16578;53.266;7.920;2022-07-22T10:22:44;21.30;64.70
29663;DHT22;16578;53.266;7.920;2022-07-22T10:25:13;21.30;65.00
29663;DHT22;16578;53.266;7.920;2022-07-22T10:30:16;21.40;64.50
29663;DHT22;16578;53.266;7.920;2022-07-22T10:32:42;21.40;64.50
29663;DHT22;16578;53.266;7.920;2022-07-22T10:45:30;21.50;64.00
29663;DHT22;16578;53.266;7.920;2022-07-22T10:48:01;21.50;64.00
29663;DHT22;16578;53.266;7.920;2022-07-22T10:53:03;21.50;64.20
29663;DHT22;16578;53.266;7.920;2022-07-22T10:55:29;21.50;64.00
29663;DHT22;16578;53.266;7.920;2022-07-22T10:57:55;21.50;64.20
29663;DHT22;16578;53.266;7.920;2022-07-22T11:00:20;21.50;64.20
29663;DHT22;16578;53.266;7.920;2022-07-22T11:02:46;21.50;64.40
29663;DHT22;16578;53.266;7.920;2022-07-22T11:05:12;21.50;64.50
29663;DHT22;16578;53.266;7.920;2022-07-22T11:07:43;21.50;64.50
29663;DHT22;16578;53.266;7.920;2022-07-22T11:10:19;21.60;64.30
29663;DHT22;16578;53.266;7.920;2022-07-22T11:12:47;21.60;64.60
29663;DHT22;16578;53.266;7.920;2022-07-22T11:15:12;21.60;64.80
29663;DHT22;16578;53.266;7.920;2022-07-22T11:17:39;21.60;64.90
29663;DHT22;16578;53.266;7.920;2022-07-22T11:20:07;21.70;64.80
29663;DHT22;16578;53.266;7.920;2022-07-22T11:22:33;21.70;64.90
29663;DHT22;16578;53.266;7.920;2022-07-22T11:25:05;21.60;65.40
29663;DHT22;16578;53.266;7.920;2022-07-22T11:27:31;21.70;64.40
29663;DHT22;16578;53.266;7.920;2022-07-22T11:29:57;21.80;64.20
29663;DHT22;16578;53.266;7.920;2022-07-22T11:32:24;21.80;64.20
29663;DHT22;16578;53.266;7.920;2022-07-22T11:34:50;21.80;64.00
29663;DHT22;16578;53.266;7.920;2022-07-22T11:37:19;21.80;63.70
29663;DHT22;16578;53.266;7.920;2022-07-22T11:39:45;21.80;64.20
29663;DHT22;16578;53.266;7.920;2022-07-22T11:42:12;21.90;64.60
29663;DHT22;16578;53.266;7.920;2022-07-22T11:44:39;21.90;64.90
29663;DHT22;16578;53.266;7.920;2022-07-22T11:47:06;22.00;65.00
29663;DHT22;16578;53.266;7.920;2022-07-22T11:49:34;22.00;64.40
29663;DHT22;16578;53.266;7.920;2022-07-22T11:52:02;22.00;64.00
29663;DHT22;16578;53.266;7.920;2022-07-22T11:54:28;22.00;63.80
29663;DHT22;16578;53.266;7.920;2022-07-22T11:56:53;22.00;63.70
29663;DHT22;16578;53.266;7.920;2022-07-22T11:59:19;22.00;63.60
29663;DHT22;16578;53.266;7.920;2022-07-22T12:01:47;22.10;63.80
29663;DHT22;16578;53.266;7.920;2022-07-22T12:04:26;22.10;63.70
29663;DHT22;16578;53.266;7.920;2022-07-22T12:06:52;22.10;63.90
29663;DHT22;16578;53.266;7.920;2022-07-22T12:09:20;22.10;63.90
29663;DHT22;16578;53.266;7.920;2022-07-22T12:11:48;22.10;63.50
29663;DHT22;16578;53.266;7.920;2022-07-22T12:14:19;22.10;63.10
29663;DHT22;16578;53.266;7.920;2022-07-22T12:17:06;22.10;63.10
29663;DHT22;16578;53.266;7.920;2022-07-22T12:19:35;22.20;63.00
29663;DHT22;16578;53.266;7.920;2022-07-22T12:22:10;22.20;62.50
29663;DHT22;16578;53.266;7.920;2022-07-22T12:27:17;22.10;62.80
29663;DHT22;16578;53.266;7.920;2022-07-22T12:29:45;22.10;63.30
29663;DHT22;16578;53.266;7.920;2022-07-22T12:39:56;22.20;62.00
29663;DHT22;16578;53.266;7.920;2022-07-22T12:42:24;22.20;61.30
29663;DHT22;16578;53.266;7.920;2022-07-22T12:44:51;22.20;61.00
29663;DHT22;16578;53.266;7.920;2022-07-22T12:47:17;22.20;60.80
29663;DHT22;16578;53.266;7.920;2022-07-22T12:52:41;22.30;61.20
29663;DHT22;16578;53.266;7.920;2022-07-22T12:55:07;22.30;61.70
29663;DHT22;16578;53.266;7.920;2022-07-22T12:57:32;22.30;61.70
29663;DHT22;16578;53.266;7.920;2022-07-22T12:59:58;22.30;61.60
29663;DHT22;16578;53.266;7.920;2022-07-22T13:02:23;22.30;61.10
29663;DHT22;16578;53.266;7.920;2022-07-22T13:04:49;22.40;61.30
29663;DHT22;16578;53.266;7.920;2022-07-22T13:07:14;22.40;61.00
29663;DHT22;16578;53.266;7.920;2022-07-22T13:09:40;22.40;61.10
29663;DHT22;16578;53.266;7.920;2022-07-22T13:12:06;22.40;60.60
29663;DHT22;16578;53.266;7.920;2022-07-22T13:14:31;22.40;60.80
29663;DHT22;16578;53.266;7.920;2022-07-22T13:16:57;22.40;60.40
29663;DHT22;16578;53.266;7.920;2022-07-22T13:19:22;22.40;60.70
29663;DHT22;16578;53.266;7.920;2022-07-22T13:21:48;22.50;61.30
29663;DHT22;16578;53.266;7.920;2022-07-22T13:24:13;22.50;61.10
29663;DHT22;16578;53.266;7.920;2022-07-22T13:26:39;22.50;61.20
29663;DHT22;16578;53.266;7.920;2022-07-22T13:29:05;22.50;61.10
29663;DHT22;16578;53.266;7.920;2022-07-22T13:31:31;22.50;60.80
29663;DHT22;16578;53.266;7.920;2022-07-22T13:33:56;22.50;60.30
29663;DHT22;16578;53.266;7.920;2022-07-22T13:36:22;22.50;60.90
29663;DHT22;16578;53.266;7.920;2022-07-22T13:38:49;22.50;60.90
29663;DHT22;16578;53.266;7.920;2022-07-22T13:41:15;22.50;61.30
29663;DHT22;16578;53.266;7.920;2022-07-22T13:43:43;22.50;60.00
29663;DHT22;16578;53.266;7.920;2022-07-22T13:46:09;22.50;60.60
29663;DHT22;16578;53.266;7.920;2022-07-22T13:48:35;22.40;60.90
29663;DHT22;16578;53.266;7.920;2022-07-22T13:51:00;22.40;61.10
29663;DHT22;16578;53.266;7.920;2022-07-22T13:53:26;22.40;61.10
29663;DHT22;16578;53.266;7.920;2022-07-22T13:55:51;22.40;61.20
29663;DHT22;16578;53.266;7.920;2022-07-22T13:58:17;22.40;61.20
29663;DHT22;16578;53.266;7.920;2022-07-22T14:00:42;22.40;61.20
29663;DHT22;16578;53.266;7.920;2022-07-22T14:03:07;22.40;61.00
29663;DHT22;16578;53.266;7.920;2022-07-22T14:05:33;22.40;61.00
29663;DHT22;16578;53.266;7.920;2022-07-22T14:07:59;22.40;61.10
29663;DHT22;16578;53.266;7.920;2022-07-22T14:10:24;22.40;61.00
29663;DHT22;16578;53.266;7.920;2022-07-22T14:12:50;22.50;61.10
29663;DHT22;16578;53.266;7.920;2022-07-22T14:15:15;22.50;61.20
29663;DHT22;16578;53.266;7.920;2022-07-22T14:17:41;22.50;61.00
29663;DHT22;16578;53.266;7.920;2022-07-22T14:20:07;22.50;61.00
29663;DHT22;16578;53.266;7.920;2022-07-22T14:22:33;22.50;60.90
29663;DHT22;16578;53.266;7.920;2022-07-22T14:24:58;22.50;60.90
29663;DHT22;16578;53.266;7.920;2022-07-22T14:27:24;22.50;60.70
29663;DHT22;16578;53.266;7.920;2022-07-22T14:29:49;22.50;60.50
29663;DHT22;16578;53.266;7.920;2022-07-22T14:32:15;22.50;60.60
29663;DHT22;16578;53.266;7.920;2022-07-22T14:34:41;22.50;60.60
29663;DHT22;16578;53.266;7.920;2022-07-22T14:37:06;22.50;60.50
29663;DHT22;16578;53.266;7.920;2022-07-22T14:39:34;22.50;60.50
29663;DHT22;16578;53.266;7.920;2022-07-22T14:41:59;22.50;60.40
29663;DHT22;16578;53.266;7.920;2022-07-22T14:44:25;22.50;60.30
29663;DHT22;16578;53.266;7.920;2022-07-22T14:46:51;22.50;60.30
29663;DHT22;16578;53.266;7.920;2022-07-22T14:49:16;22.50;60.30
29663;DHT22;16578;53.266;7.920;2022-07-22T14:51:42;22.50;60.30
29663;DHT22;16578;53.266;7.920;2022-07-22T14:54:08;22.50;60.30
29663;DHT22;16578;53.266;7.920;2022-07-22T14:56:34;22.40;60.30
29663;DHT22;16578;53.266;7.920;2022-07-22T14:58:59;22.40;60.40
29663;DHT22;16578;53.266;7.920;2022-07-22T15:01:27;22.40;60.40
29663;DHT22;16578;53.266;7.920;2022-07-22T15:03:53;22.40;60.50
29663;DHT22;16578;53.266;7.920;2022-07-22T15:06:19;22.40;60.50
29663;DHT22;16578;53.266;7.920;2022-07-22T15:08:46;22.50;60.50
29663;DHT22;16578;53.266;7.920;2022-07-22T15:11:11;22.40;60.30
29663;DHT22;16578;53.266;7.920;2022-07-22T15:13:37;22.40;60.30
29663;DHT22;16578;53.266;7.920;2022-07-22T15:16:02;22.40;60.30
29663;DHT22;16578;53.266;7.920;2022-07-22T15:18:28;22.40;60.40
29663;DHT22;16578;53.266;7.920;2022-07-22T15:20:53;22.40;60.50
29663;DHT22;16578;53.266;7.920;2022-07-22T15:23:25;22.40;60.40
29663;DHT22;16578;53.266;7.920;2022-07-22T15:25:53;22.40;60.40
29663;DHT22;16578;53.266;7.920;2022-07-22T15:28:19;22.50;60.60
29663;DHT22;16578;53.266;7.920;2022-07-22T15:30:44;22.50;60.50
29663;DHT22;16578;53.266;7.920;2022-07-22T15:33:10;22.50;60.40
29663;DHT22;16578;53.266;7.920;2022-07-22T15:35:35;22.40;60.20
29663;DHT22;16578;53.266;7.920;2022-07-22T15:38:01;22.40;60.20
29663;DHT22;16578;53.266;7.920;2022-07-22T15:40:26;22.40;60.30
29663;DHT22;16578;53.266;7.920;2022-07-22T15:42:52;22.40;60.30
29663;DHT22;16578;53.266;7.920;2022-07-22T15:45:17;22.40;60.20
29663;DHT22;16578;53.266;7.920;2022-07-22T15:47:42;22.40;60.20
29663;DHT22;16578;53.266;7.920;2022-07-22T15:50:09;22.40;60.30
29663;DHT22;16578;53.266;7.920;2022-07-22T15:52:34;22.40;60.40
29663;DHT22;16578;53.266;7.920;2022-07-22T15:55:00;22.40;60.50